sensor_id;sensor_type;location;lat;lon;timestamp;temperature;humidity
11639;DHT22;5875;35.940;126.892;2023-02-01T00:01:29;5.00;99.90
11639;DHT22;5875;35.940;126.892;2023-02-01T00:03:56;5.00;99.90
11639;DHT22;5875;35.940;126.892;2023-02-01T00:06:23;5.10;99.90
11639;DHT22;5875;35.940;126.892;2023-02-01T00:08:53;5.20;99.90
11639;DHT22;5875;35.940;126.892;2023-02-01T00:11:21;5.20;99.90
11639;DHT22;5875;35.940;126.892;2023-02-01T00:13:48;5.30;99.90
11639;DHT22;5875;35.940;126.892;2023-02-01T00:16:21;5.40;99.90
11639;DHT22;5875;35.940;126.892;2023-02-01T00:18:51;5.40;99.90
11639;DHT22;5875;35.940;126.892;2023-02-01T00:21:20;5.50;99.90
11639;DHT22;5875;35.940;126.892;2023-02-01T00:23:47;5.60;99.90
11639;DHT22;5875;35.940;126.892;2023-02-01T00:26:21;5.80;99.90
11639;DHT22;5875;35.940;126.892;2023-02-01T00:28:49;5.90;99.90
11639;DHT22;5875;35.940;126.892;2023-02-01T00:31:16;6.00;99.90
11639;DHT22;5875;35.940;126.892;2023-02-01T00:33:47;6.20;99.90
11639;DHT22;5875;35.940;126.892;2023-02-01T00:36:14;6.40;99.90
11639;DHT22;5875;35.940;126.892;2023-02-01T00:38:42;6.60;99.90
11639;DHT22;5875;35.940;126.892;2023-02-01T00:41:15;6.60;99.90
11639;DHT22;5875;35.940;126.892;2023-02-01T00:43:43;6.60;99.90
11639;DHT22;5875;35.940;126.892;2023-02-01T00:46:12;6.70;99.90
11639;DHT22;5875;35.940;126.892;2023-02-01T00:48:40;6.90;99.90
11639;DHT22;5875;35.940;126.892;2023-02-01T00:51:13;7.10;99.90
11639;DHT22;5875;35.940;126.892;2023-02-01T00:53:41;7.80;99.90
11639;DHT22;5875;35.940;126.892;2023-02-01T00:56:08;8.80;99.90
11639;DHT22;5875;35.940;126.892;2023-02-01T00:58:36;9.80;99.90
11639;DHT22;5875;35.940;126.892;2023-02-01T01:01:04;10.70;99.90
11639;DHT22;5875;35.940;126.892;2023-02-01T01:03:33;11.60;99.90
11639;DHT22;5875;35.940;126.892;2023-02-01T01:06:04;12.30;99.90
11639;DHT22;5875;35.940;126.892;2023-02-01T01:08:32;12.90;99.90
11639;DHT22;5875;35.940;126.892;2023-02-01T01:11:03;13.30;93.00
11639;DHT22;5875;35.940;126.892;2023-02-01T01:13:30;13.50;84.20
11639;DHT22;5875;35.940;126.892;2023-02-01T01:16:01;14.10;90.80
11639;DHT22;5875;35.940;126.892;2023-02-01T01:18:30;14.80;90.40
11639;DHT22;5875;35.940;126.892;2023-02-01T01:20:58;15.40;82.20
11639;DHT22;5875;35.940;126.892;2023-02-01T01:23:26;16.00;75.60
11639;DHT22;5875;35.940;126.892;2023-02-01T01:25:53;16.40;70.40
11639;DHT22;5875;35.940;126.892;2023-02-01T01:28:21;16.70;65.00
11639;DHT22;5875;35.940;126.892;2023-02-01T01:30:48;17.20;62.60
11639;DHT22;5875;35.940;126.892;2023-02-01T01:33:15;17.60;58.40
11639;DHT22;5875;35.940;126.892;2023-02-01T01:35:42;17.80;54.20
11639;DHT22;5875;35.940;126.892;2023-02-01T01:38:10;18.10;48.80
11639;DHT22;5875;35.940;126.892;2023-02-01T01:40:38;18.30;46.60
11639;DHT22;5875;35.940;126.892;2023-02-01T01:43:16;18.50;42.50
11639;DHT22;5875;35.940;126.892;2023-02-01T01:45:44;18.80;45.10
11639;DHT22;5875;35.940;126.892;2023-02-01T01:50:52;19.90;41.80
11639;DHT22;5875;35.940;126.892;2023-02-01T01:53:27;20.40;37.30
11639;DHT22;5875;35.940;126.892;2023-02-01T01:55:56;20.80;35.70
11639;DHT22;5875;35.940;126.892;2023-02-01T01:58:26;20.90;31.70
11639;DHT22;5875;35.940;126.892;2023-02-01T02:00:55;21.30;29.80
11639;DHT22;5875;35.940;126.892;2023-02-01T02:03:42;21.40;24.90
11639;DHT22;5875;35.940;126.892;2023-02-01T02:08:45;21.90;18.90
11639;DHT22;5875;35.940;126.892;2023-02-01T02:11:16;22.00;19.20
11639;DHT22;5875;35.940;126.892;2023-02-01T02:13:46;22.20;17.60
11639;DHT22;5875;35.940;126.892;2023-02-01T02:16:39;22.50;17.50
11639;DHT22;5875;35.940;126.892;2023-02-01T02:22:12;22.80;12.30
11639;DHT22;5875;35.940;126.892;2023-02-01T02:30:54;22.80;6.80
11639;DHT22;5875;35.940;126.892;2023-02-01T02:36:50;22.60;1.30
11639;DHT22;5875;35.940;126.892;2023-02-01T02:39:38;22.40;1.90
11639;DHT22;5875;35.940;126.892;2023-02-01T02:49:00;22.10;1.00
11639;DHT22;5875;35.940;126.892;2023-02-01T02:51:43;22.10;1.00
11639;DHT22;5875;35.940;126.892;2023-02-01T02:54:33;21.70;1.00
11639;DHT22;5875;35.940;126.892;2023-02-01T02:57:30;21.30;1.00
11639;DHT22;5875;35.940;126.892;2023-02-01T03:00:18;21.00;1.00
11639;DHT22;5875;35.940;126.892;2023-02-01T03:03:05;20.60;1.00
11639;DHT22;5875;35.940;126.892;2023-02-01T03:05:51;20.30;1.00
11639;DHT22;5875;35.940;126.892;2023-02-01T03:08:29;20.10;1.00
11639;DHT22;5875;35.940;126.892;2023-02-01T03:13:53;19.90;1.00
11639;DHT22;5875;35.940;126.892;2023-02-01T03:16:25;19.80;1.00
11639;DHT22;5875;35.940;126.892;2023-02-01T03:19:06;19.70;1.00
11639;DHT22;5875;35.940;126.892;2023-02-01T03:21:38;19.60;1.00
11639;DHT22;5875;35.940;126.892;2023-02-01T03:26:54;19.50;1.00
11639;DHT22;5875;35.940;126.892;2023-02-01T03:29:29;19.50;1.00
11639;DHT22;5875;35.940;126.892;2023-02-01T03:31:57;19.50;1.00
11639;DHT22;5875;35.940;126.892;2023-02-01T03:34:25;19.50;1.00
11639;DHT22;5875;35.940;126.892;2023-02-01T03:37:04;19.50;1.00
11639;DHT22;5875;35.940;126.892;2023-02-01T03:40:20;19.50;1.10
11639;DHT22;5875;35.940;126.892;2023-02-01T03:42:36;19.50;1.60
11639;DHT22;5875;35.940;126.892;2023-02-01T03:45:34;19.50;2.00
11639;DHT22;5875;35.940;126.892;2023-02-01T03:48:04;19.20;1.40
11639;DHT22;5875;35.940;126.892;2023-02-01T03:50:35;19.10;2.00
11639;DHT22;5875;35.940;126.892;2023-02-01T03:53:10;18.90;2.10
11639;DHT22;5875;35.940;126.892;2023-02-01T03:55:39;18.90;3.10
11639;DHT22;5875;35.940;126.892;2023-02-01T03:58:21;18.80;2.20
11639;DHT22;5875;35.940;126.892;2023-02-01T04:00:54;18.60;1.80
11639;DHT22;5875;35.940;126.892;2023-02-01T04:03:22;18.30;1.50
11639;DHT22;5875;35.940;126.892;2023-02-01T04:05:50;18.20;2.20
11639;DHT22;5875;35.940;126.892;2023-02-01T04:08:22;18.10;2.60
11639;DHT22;5875;35.940;126.892;2023-02-01T04:10:49;18.10;3.00
11639;DHT22;5875;35.940;126.892;2023-02-01T04:13:17;18.20;3.00
11639;DHT22;5875;35.940;126.892;2023-02-01T04:15:44;18.30;3.10
11639;DHT22;5875;35.940;126.892;2023-02-01T04:18:12;18.20;2.90
11639;DHT22;5875;35.940;126.892;2023-02-01T04:20:39;18.20;3.40
11639;DHT22;5875;35.940;126.892;2023-02-01T04:23:06;18.20;3.80
11639;DHT22;5875;35.940;126.892;2023-02-01T04:25:33;18.10;3.60
11639;DHT22;5875;35.940;126.892;2023-02-01T04:28:00;17.90;1.90
11639;DHT22;5875;35.940;126.892;2023-02-01T04:30:27;18.00;2.90
11639;DHT22;5875;35.940;126.892;2023-02-01T04:32:55;18.00;2.20
11639;DHT22;5875;35.940;126.892;2023-02-01T04:35:22;18.00;1.30
11639;DHT22;5875;35.940;126.892;2023-02-01T04:37:49;18.00;1.00
11639;DHT22;5875;35.940;126.892;2023-02-01T04:40:17;18.20;1.00
11639;DHT22;5875;35.940;126.892;2023-02-01T04:42:44;18.10;1.00
11639;DHT22;5875;35.940;126.892;2023-02-01T04:45:11;18.00;1.00
11639;DHT22;5875;35.940;126.892;2023-02-01T04:47:39;17.80;1.00
11639;DHT22;5875;35.940;126.892;2023-02-01T04:50:06;17.60;1.00
11639;DHT22;5875;35.940;126.892;2023-02-01T04:52:37;17.50;1.00
11639;DHT22;5875;35.940;126.892;2023-02-01T04:55:04;17.30;1.00
11639;DHT22;5875;35.940;126.892;2023-02-01T04:57:32;17.10;1.00
11639;DHT22;5875;35.940;126.892;2023-02-01T04:59:59;17.10;1.00
11639;DHT22;5875;35.940;126.892;2023-02-01T05:02:26;17.10;1.00
11639;DHT22;5875;35.940;126.892;2023-02-01T05:04:53;17.10;1.00
11639;DHT22;5875;35.940;126.892;2023-02-01T05:07:22;17.10;1.00
11639;DHT22;5875;35.940;126.892;2023-02-01T05:09:49;17.20;1.00
11639;DHT22;5875;35.940;126.892;2023-02-01T05:12:16;17.20;1.00
11639;DHT22;5875;35.940;126.892;2023-02-01T05:15:01;17.20;1.00
11639;DHT22;5875;35.940;126.892;2023-02-01T05:17:29;17.40;1.00
11639;DHT22;5875;35.940;126.892;2023-02-01T05:19:56;17.40;1.00
11639;DHT22;5875;35.940;126.892;2023-02-01T05:22:23;17.40;1.00
11639;DHT22;5875;35.940;126.892;2023-02-01T05:24:50;17.40;1.00
11639;DHT22;5875;35.940;126.892;2023-02-01T05:27:17;17.50;1.00
11639;DHT22;5875;35.940;126.892;2023-02-01T05:29:45;17.50;1.00
11639;DHT22;5875;35.940;126.892;2023-02-01T05:32:12;17.50;1.00
11639;DHT22;5875;35.940;126.892;2023-02-01T05:34:39;17.50;1.00
11639;DHT22;5875;35.940;126.892;2023-02-01T05:37:06;17.40;1.00
11639;DHT22;5875;35.940;126.892;2023-02-01T05:39:33;17.40;1.00
11639;DHT22;5875;35.940;126.892;2023-02-01T05:42:01;17.40;1.00
11639;DHT22;5875;35.940;126.892;2023-02-01T05:44:28;17.30;1.00
11639;DHT22;5875;35.940;126.892;2023-02-01T05:46:55;17.30;1.00
11639;DHT22;5875;35.940;126.892;2023-02-01T05:49:22;17.20;1.00
11639;DHT22;5875;35.940;126.892;2023-02-01T05:51:49;17.00;1.00
11639;DHT22;5875;35.940;126.892;2023-02-01T05:54:17;17.00;1.00
11639;DHT22;5875;35.940;126.892;2023-02-01T05:56:44;17.00;1.00
11639;DHT22;5875;35.940;126.892;2023-02-01T05:59:11;17.00;1.00
11639;DHT22;5875;35.940;126.892;2023-02-01T06:01:38;17.00;1.00
11639;DHT22;5875;35.940;126.892;2023-02-01T06:04:05;16.90;1.00
11639;DHT22;5875;35.940;126.892;2023-02-01T06:06:32;16.70;1.00
11639;DHT22;5875;35.940;126.892;2023-02-01T06:09:00;16.70;1.00
11639;DHT22;5875;35.940;126.892;2023-02-01T06:11:27;16.70;1.00
11639;DHT22;5875;35.940;126.892;2023-02-01T06:13:55;16.60;1.00
11639;DHT22;5875;35.940;126.892;2023-02-01T06:16:22;16.40;1.00
11639;DHT22;5875;35.940;126.892;2023-02-01T06:18:50;16.40;1.00
11639;DHT22;5875;35.940;126.892;2023-02-01T06:21:17;16.30;1.00
11639;DHT22;5875;35.940;126.892;2023-02-01T06:23:53;16.30;1.00
11639;DHT22;5875;35.940;126.892;2023-02-01T06:26:21;16.20;1.00
11639;DHT22;5875;35.940;126.892;2023-02-01T06:28:48;16.10;1.00
11639;DHT22;5875;35.940;126.892;2023-02-01T06:31:15;16.00;1.00
11639;DHT22;5875;35.940;126.892;2023-02-01T06:33:46;15.80;1.00
11639;DHT22;5875;35.940;126.892;2023-02-01T06:36:15;15.70;1.00
11639;DHT22;5875;35.940;126.892;2023-02-01T06:38:42;15.60;1.00
11639;DHT22;5875;35.940;126.892;2023-02-01T06:41:09;15.50;1.00
11639;DHT22;5875;35.940;126.892;2023-02-01T06:43:37;15.50;1.00
11639;DHT22;5875;35.940;126.892;2023-02-01T06:46:07;15.40;1.00
11639;DHT22;5875;35.940;126.892;2023-02-01T06:48:34;15.20;1.00
11639;DHT22;5875;35.940;126.892;2023-02-01T06:51:02;15.10;1.00
11639;DHT22;5875;35.940;126.892;2023-02-01T06:53:33;15.00;1.00
11639;DHT22;5875;35.940;126.892;2023-02-01T06:56:02;14.90;1.00
11639;DHT22;5875;35.940;126.892;2023-02-01T06:58:31;14.80;1.00
11639;DHT22;5875;35.940;126.892;2023-02-01T07:01:08;14.70;1.00
11639;DHT22;5875;35.940;126.892;2023-02-01T07:03:36;14.60;1.00
11639;DHT22;5875;35.940;126.892;2023-02-01T07:06:03;14.40;1.00
11639;DHT22;5875;35.940;126.892;2023-02-01T07:08:33;14.40;1.00
11639;DHT22;5875;35.940;126.892;2023-02-01T07:11:09;14.30;1.00
11639;DHT22;5875;35.940;126.892;2023-02-01T07:13:36;14.20;1.00
11639;DHT22;5875;35.940;126.892;2023-02-01T07:16:06;14.00;1.00
11639;DHT22;5875;35.940;126.892;2023-02-01T07:18:34;14.00;1.00
11639;DHT22;5875;35.940;126.892;2023-02-01T07:21:01;13.80;1.00
11639;DHT22;5875;35.940;126.892;2023-02-01T07:23:28;13.70;1.00
11639;DHT22;5875;35.940;126.892;2023-02-01T07:26:01;13.60;1.00
11639;DHT22;5875;35.940;126.892;2023-02-01T07:28:32;13.50;1.00
11639;DHT22;5875;35.940;126.892;2023-02-01T07:31:09;13.40;1.00
11639;DHT22;5875;35.940;126.892;2023-02-01T07:33:37;13.30;1.00
11639;DHT22;5875;35.940;126.892;2023-02-01T07:36:06;13.20;1.00
11639;DHT22;5875;35.940;126.892;2023-02-01T07:38:34;13.10;1.00
11639;DHT22;5875;35.940;126.892;2023-02-01T07:41:03;13.00;1.00
11639;DHT22;5875;35.940;126.892;2023-02-01T07:43:31;12.80;1.00
11639;DHT22;5875;35.940;126.892;2023-02-01T07:46:03;12.70;1.00
11639;DHT22;5875;35.940;126.892;2023-02-01T07:48:31;12.70;1.00
11639;DHT22;5875;35.940;126.892;2023-02-01T07:51:08;12.60;1.00
11639;DHT22;5875;35.940;126.892;2023-02-01T07:53:36;12.50;1.00
11639;DHT22;5875;35.940;126.892;2023-02-01T07:56:16;12.50;1.00
11639;DHT22;5875;35.940;126.892;2023-02-01T07:58:48;12.40;1.00
11639;DHT22;5875;35.940;126.892;2023-02-01T08:01:19;12.20;1.00
11639;DHT22;5875;35.940;126.892;2023-02-01T08:03:52;12.10;1.00
11639;DHT22;5875;35.940;126.892;2023-02-01T08:06:20;12.00;1.00
11639;DHT22;5875;35.940;126.892;2023-02-01T08:08:49;11.90;1.00
11639;DHT22;5875;35.940;126.892;2023-02-01T08:11:17;11.80;1.00
11639;DHT22;5875;35.940;126.892;2023-02-01T08:13:45;11.70;1.00
11639;DHT22;5875;35.940;126.892;2023-02-01T08:16:14;11.60;1.00
11639;DHT22;5875;35.940;126.892;2023-02-01T08:18:42;11.50;1.00
11639;DHT22;5875;35.940;126.892;2023-02-01T08:21:11;11.40;1.00
11639;DHT22;5875;35.940;126.892;2023-02-01T08:23:40;11.30;1.00
11639;DHT22;5875;35.940;126.892;2023-02-01T08:28:47;11.10;1.00
11639;DHT22;5875;35.940;126.892;2023-02-01T08:31:16;10.90;1.00
11639;DHT22;5875;35.940;126.892;2023-02-01T08:33:47;10.80;1.00
11639;DHT22;5875;35.940;126.892;2023-02-01T08:36:15;10.70;1.00
11639;DHT22;5875;35.940;126.892;2023-02-01T08:38:42;10.50;1.00
11639;DHT22;5875;35.940;126.892;2023-02-01T08:41:15;10.50;1.00
11639;DHT22;5875;35.940;126.892;2023-02-01T08:43:44;10.30;1.00
11639;DHT22;5875;35.940;126.892;2023-02-01T08:46:11;10.20;1.00
11639;DHT22;5875;35.940;126.892;2023-02-01T08:48:39;10.00;1.00
11639;DHT22;5875;35.940;126.892;2023-02-01T08:51:11;9.90;1.00
11639;DHT22;5875;35.940;126.892;2023-02-01T08:53:40;9.80;1.00
11639;DHT22;5875;35.940;126.892;2023-02-01T08:56:09;9.70;1.00
11639;DHT22;5875;35.940;126.892;2023-02-01T08:58:38;9.60;1.00
11639;DHT22;5875;35.940;126.892;2023-02-01T09:01:16;9.50;1.00
11639;DHT22;5875;35.940;126.892;2023-02-01T09:03:43;9.40;1.00
11639;DHT22;5875;35.940;126.892;2023-02-01T09:06:12;9.30;1.00
11639;DHT22;5875;35.940;126.892;2023-02-01T09:08:40;9.20;1.00
11639;DHT22;5875;35.940;126.892;2023-02-01T09:11:12;9.10;1.00
11639;DHT22;5875;35.940;126.892;2023-02-01T09:13:39;9.00;1.30
11639;DHT22;5875;35.940;126.892;2023-02-01T09:16:06;8.90;2.00
11639;DHT22;5875;35.940;126.892;2023-02-01T09:18:34;8.80;2.30
11639;DHT22;5875;35.940;126.892;2023-02-01T09:21:05;8.70;2.80
11639;DHT22;5875;35.940;126.892;2023-02-01T09:23:33;8.70;3.20
11639;DHT22;5875;35.940;126.892;2023-02-01T09:26:05;8.60;3.70
11639;DHT22;5875;35.940;126.892;2023-02-01T09:28:33;8.50;4.10
11639;DHT22;5875;35.940;126.892;2023-02-01T09:31:01;8.40;4.20
11639;DHT22;5875;35.940;126.892;2023-02-01T09:33:29;8.30;5.10
11639;DHT22;5875;35.940;126.892;2023-02-01T09:35:57;8.30;5.70
11639;DHT22;5875;35.940;126.892;2023-02-01T09:38:25;8.20;5.90
11639;DHT22;5875;35.940;126.892;2023-02-01T09:40:54;8.10;6.70
11639;DHT22;5875;35.940;126.892;2023-02-01T09:48:38;7.90;8.30
11639;DHT22;5875;35.940;126.892;2023-02-01T09:51:34;7.80;8.60
11639;DHT22;5875;35.940;126.892;2023-02-01T09:54:24;7.80;9.30
11639;DHT22;5875;35.940;126.892;2023-02-01T09:57:06;7.70;9.60
11639;DHT22;5875;35.940;126.892;2023-02-01T10:02:03;7.50;10.40
11639;DHT22;5875;35.940;126.892;2023-02-01T10:04:32;7.40;10.90
11639;DHT22;5875;35.940;126.892;2023-02-01T10:07:20;7.40;11.60
11639;DHT22;5875;35.940;126.892;2023-02-01T10:10:01;7.40;12.50
11639;DHT22;5875;35.940;126.892;2023-02-01T10:21:09;7.10;14.60
11639;DHT22;5875;35.940;126.892;2023-02-01T10:26:23;7.00;16.00
11639;DHT22;5875;35.940;126.892;2023-02-01T10:28:56;7.00;16.50
11639;DHT22;5875;35.940;126.892;2023-02-01T10:31:35;6.90;15.90
11639;DHT22;5875;35.940;126.892;2023-02-01T10:34:33;6.90;15.70
11639;DHT22;5875;35.940;126.892;2023-02-01T10:39:47;6.80;15.90
11639;DHT22;5875;35.940;126.892;2023-02-01T10:42:18;6.70;16.10
11639;DHT22;5875;35.940;126.892;2023-02-01T10:44:46;6.70;16.30
11639;DHT22;5875;35.940;126.892;2023-02-01T10:47:14;6.60;16.20
11639;DHT22;5875;35.940;126.892;2023-02-01T10:52:59;6.40;14.10
11639;DHT22;5875;35.940;126.892;2023-02-01T10:55:50;6.40;16.10
11639;DHT22;5875;35.940;126.892;2023-02-01T10:58:29;6.40;16.50
11639;DHT22;5875;35.940;126.892;2023-02-01T11:01:04;6.40;16.30
11639;DHT22;5875;35.940;126.892;2023-02-01T11:06:02;6.30;16.20
11639;DHT22;5875;35.940;126.892;2023-02-01T11:08:30;6.30;16.30
11639;DHT22;5875;35.940;126.892;2023-02-01T11:11:02;6.20;15.80
11639;DHT22;5875;35.940;126.892;2023-02-01T11:13:36;6.10;15.70
11639;DHT22;5875;35.940;126.892;2023-02-01T11:16:05;6.10;15.90
11639;DHT22;5875;35.940;126.892;2023-02-01T11:18:37;6.00;16.10
11639;DHT22;5875;35.940;126.892;2023-02-01T11:21:09;5.90;16.20
11639;DHT22;5875;35.940;126.892;2023-02-01T11:23:44;5.90;16.20
11639;DHT22;5875;35.940;126.892;2023-02-01T11:26:14;5.90;16.40
11639;DHT22;5875;35.940;126.892;2023-02-01T11:29:10;5.80;17.50
11639;DHT22;5875;35.940;126.892;2023-02-01T11:31:39;5.80;17.00
11639;DHT22;5875;35.940;126.892;2023-02-01T11:34:17;5.70;17.60
11639;DHT22;5875;35.940;126.892;2023-02-01T11:36:47;5.70;18.00
11639;DHT22;5875;35.940;126.892;2023-02-01T11:42:03;5.70;18.50
11639;DHT22;5875;35.940;126.892;2023-02-01T11:44:39;5.60;18.50
11639;DHT22;5875;35.940;126.892;2023-02-01T11:47:29;5.60;18.60
11639;DHT22;5875;35.940;126.892;2023-02-01T11:50:03;5.50;18.80
11639;DHT22;5875;35.940;126.892;2023-02-01T11:52:51;5.50;19.50
11639;DHT22;5875;35.940;126.892;2023-02-01T11:59:21;5.30;20.30
11639;DHT22;5875;35.940;126.892;2023-02-01T12:01:46;5.30;21.40
11639;DHT22;5875;35.940;126.892;2023-02-01T12:15:08;4.90;23.70
11639;DHT22;5875;35.940;126.892;2023-02-01T12:21:14;4.90;24.80
11639;DHT22;5875;35.940;126.892;2023-02-01T12:29:33;4.90;21.70
11639;DHT22;5875;35.940;126.892;2023-02-01T12:40:22;4.80;21.60
11639;DHT22;5875;35.940;126.892;2023-02-01T12:45:41;4.80;21.30
11639;DHT22;5875;35.940;126.892;2023-02-01T12:48:37;4.80;21.00
11639;DHT22;5875;35.940;126.892;2023-02-01T12:51:16;4.70;21.30
11639;DHT22;5875;35.940;126.892;2023-02-01T12:56:45;4.60;22.60
11639;DHT22;5875;35.940;126.892;2023-02-01T12:59:38;4.50;22.70
11639;DHT22;5875;35.940;126.892;2023-02-01T13:02:27;4.40;23.00
11639;DHT22;5875;35.940;126.892;2023-02-01T13:08:10;4.50;21.90
11639;DHT22;5875;35.940;126.892;2023-02-01T13:10:48;4.50;21.20
11639;DHT22;5875;35.940;126.892;2023-02-01T13:13:52;4.50;21.60
11639;DHT22;5875;35.940;126.892;2023-02-01T13:16:37;4.40;22.20
11639;DHT22;5875;35.940;126.892;2023-02-01T13:22:01;4.30;23.40
11639;DHT22;5875;35.940;126.892;2023-02-01T13:24:58;4.20;23.10
11639;DHT22;5875;35.940;126.892;2023-02-01T13:27:30;4.20;23.40
11639;DHT22;5875;35.940;126.892;2023-02-01T13:30:50;4.10;24.00
11639;DHT22;5875;35.940;126.892;2023-02-01T13:33:18;4.10;24.10
11639;DHT22;5875;35.940;126.892;2023-02-01T13:39:20;4.10;24.10
11639;DHT22;5875;35.940;126.892;2023-02-01T13:47:50;4.00;24.90
11639;DHT22;5875;35.940;126.892;2023-02-01T13:50:38;4.00;24.50
11639;DHT22;5875;35.940;126.892;2023-02-01T13:53:21;4.00;24.40
11639;DHT22;5875;35.940;126.892;2023-02-01T13:56:01;4.00;25.60
11639;DHT22;5875;35.940;126.892;2023-02-01T13:58:35;3.90;25.40
11639;DHT22;5875;35.940;126.892;2023-02-01T14:03:58;3.80;25.80
11639;DHT22;5875;35.940;126.892;2023-02-01T14:11:54;3.70;18.90
11639;DHT22;5875;35.940;126.892;2023-02-01T14:19:31;3.50;23.00
11639;DHT22;5875;35.940;126.892;2023-02-01T14:22:01;3.50;26.10
11639;DHT22;5875;35.940;126.892;2023-02-01T14:24:55;3.50;27.40
11639;DHT22;5875;35.940;126.892;2023-02-01T14:27:30;3.40;27.60
11639;DHT22;5875;35.940;126.892;2023-02-01T14:30:06;3.40;27.20
11639;DHT22;5875;35.940;126.892;2023-02-01T14:32:41;3.40;26.90
11639;DHT22;5875;35.940;126.892;2023-02-01T14:35:21;3.40;28.00
11639;DHT22;5875;35.940;126.892;2023-02-01T14:37:53;3.40;28.50
11639;DHT22;5875;35.940;126.892;2023-02-01T14:40:26;3.40;28.60
11639;DHT22;5875;35.940;126.892;2023-02-01T14:42:54;3.40;27.70
11639;DHT22;5875;35.940;126.892;2023-02-01T14:55:49;3.40;28.50
11639;DHT22;5875;35.940;126.892;2023-02-01T15:01:34;3.30;28.20
11639;DHT22;5875;35.940;126.892;2023-02-01T15:04:11;3.30;28.50
11639;DHT22;5875;35.940;126.892;2023-02-01T15:06:53;3.40;29.00
11639;DHT22;5875;35.940;126.892;2023-02-01T15:09:26;3.30;29.80
11639;DHT22;5875;35.940;126.892;2023-02-01T15:12:02;3.30;30.20
11639;DHT22;5875;35.940;126.892;2023-02-01T15:14:35;3.30;29.90
11639;DHT22;5875;35.940;126.892;2023-02-01T15:17:16;3.30;30.80
11639;DHT22;5875;35.940;126.892;2023-02-01T15:19:58;3.30;30.50
11639;DHT22;5875;35.940;126.892;2023-02-01T15:22:27;3.30;31.30
11639;DHT22;5875;35.940;126.892;2023-02-01T15:24:57;3.20;31.70
11639;DHT22;5875;35.940;126.892;2023-02-01T15:27:28;3.20;32.20
11639;DHT22;5875;35.940;126.892;2023-02-01T15:30:06;3.20;32.30
11639;DHT22;5875;35.940;126.892;2023-02-01T15:32:40;3.20;32.90
11639;DHT22;5875;35.940;126.892;2023-02-01T15:43:28;3.10;34.60
11639;DHT22;5875;35.940;126.892;2023-02-01T15:45:58;3.10;34.50
11639;DHT22;5875;35.940;126.892;2023-02-01T15:48:28;3.00;35.60
11639;DHT22;5875;35.940;126.892;2023-02-01T15:50:56;3.10;35.90
11639;DHT22;5875;35.940;126.892;2023-02-01T15:53:25;3.00;36.40
11639;DHT22;5875;35.940;126.892;2023-02-01T15:56:00;3.00;36.90
11639;DHT22;5875;35.940;126.892;2023-02-01T15:58:28;2.90;37.00
11639;DHT22;5875;35.940;126.892;2023-02-01T16:01:01;3.00;37.00
11639;DHT22;5875;35.940;126.892;2023-02-01T16:03:37;2.90;37.60
11639;DHT22;5875;35.940;126.892;2023-02-01T16:06:18;2.90;37.50
11639;DHT22;5875;35.940;126.892;2023-02-01T16:11:31;2.90;38.00
11639;DHT22;5875;35.940;126.892;2023-02-01T16:14:00;2.90;37.70
11639;DHT22;5875;35.940;126.892;2023-02-01T16:16:29;2.90;38.00
11639;DHT22;5875;35.940;126.892;2023-02-01T16:18:56;2.90;38.00
11639;DHT22;5875;35.940;126.892;2023-02-01T16:21:23;2.80;38.70
11639;DHT22;5875;35.940;126.892;2023-02-01T16:23:52;2.80;39.00
11639;DHT22;5875;35.940;126.892;2023-02-01T16:26:20;2.80;40.30
11639;DHT22;5875;35.940;126.892;2023-02-01T16:28:48;2.80;39.90
11639;DHT22;5875;35.940;126.892;2023-02-01T16:31:21;2.70;39.90
11639;DHT22;5875;35.940;126.892;2023-02-01T16:33:50;2.70;40.80
11639;DHT22;5875;35.940;126.892;2023-02-01T16:36:18;2.70;39.90
11639;DHT22;5875;35.940;126.892;2023-02-01T16:38:46;2.70;40.20
11639;DHT22;5875;35.940;126.892;2023-02-01T16:41:17;2.70;40.10
11639;DHT22;5875;35.940;126.892;2023-02-01T16:43:45;2.60;40.30
11639;DHT22;5875;35.940;126.892;2023-02-01T16:46:18;2.60;40.60
11639;DHT22;5875;35.940;126.892;2023-02-01T16:48:56;2.60;41.60
11639;DHT22;5875;35.940;126.892;2023-02-01T16:51:26;2.60;41.80
11639;DHT22;5875;35.940;126.892;2023-02-01T16:53:54;2.60;42.20
11639;DHT22;5875;35.940;126.892;2023-02-01T16:56:24;2.60;41.60
11639;DHT22;5875;35.940;126.892;2023-02-01T16:58:52;2.60;41.30
11639;DHT22;5875;35.940;126.892;2023-02-01T17:01:20;2.60;40.70
11639;DHT22;5875;35.940;126.892;2023-02-01T17:03:48;2.60;40.80
11639;DHT22;5875;35.940;126.892;2023-02-01T17:06:19;2.60;40.70
11639;DHT22;5875;35.940;126.892;2023-02-01T17:08:52;2.60;41.20
11639;DHT22;5875;35.940;126.892;2023-02-01T17:11:20;2.60;41.00
11639;DHT22;5875;35.940;126.892;2023-02-01T17:13:48;2.50;41.00
11639;DHT22;5875;35.940;126.892;2023-02-01T17:19:10;2.50;41.10
11639;DHT22;5875;35.940;126.892;2023-02-01T17:21:48;2.50;40.20
11639;DHT22;5875;35.940;126.892;2023-02-01T17:24:20;2.50;39.30
11639;DHT22;5875;35.940;126.892;2023-02-01T17:26:48;2.60;38.80
11639;DHT22;5875;35.940;126.892;2023-02-01T17:29:17;2.60;38.90
11639;DHT22;5875;35.940;126.892;2023-02-01T17:31:47;2.60;39.60
11639;DHT22;5875;35.940;126.892;2023-02-01T17:34:16;2.60;41.80
11639;DHT22;5875;35.940;126.892;2023-02-01T17:36:45;2.50;38.30
11639;DHT22;5875;35.940;126.892;2023-02-01T17:39:14;2.50;41.60
11639;DHT22;5875;35.940;126.892;2023-02-01T17:42:02;2.40;42.60
11639;DHT22;5875;35.940;126.892;2023-02-01T17:44:29;2.40;43.00
11639;DHT22;5875;35.940;126.892;2023-02-01T17:46:57;2.30;43.60
11639;DHT22;5875;35.940;126.892;2023-02-01T17:49:25;2.30;44.00
11639;DHT22;5875;35.940;126.892;2023-02-01T17:51:55;2.50;42.40
11639;DHT22;5875;35.940;126.892;2023-02-01T17:54:28;2.40;32.00
11639;DHT22;5875;35.940;126.892;2023-02-01T17:56:55;2.40;33.20
11639;DHT22;5875;35.940;126.892;2023-02-01T17:59:28;2.30;39.90
11639;DHT22;5875;35.940;126.892;2023-02-01T18:01:55;2.30;43.20
11639;DHT22;5875;35.940;126.892;2023-02-01T18:04:26;2.20;43.70
11639;DHT22;5875;35.940;126.892;2023-02-01T18:06:53;2.20;44.00
11639;DHT22;5875;35.940;126.892;2023-02-01T18:09:20;2.20;44.30
11639;DHT22;5875;35.940;126.892;2023-02-01T18:11:47;2.10;45.00
11639;DHT22;5875;35.940;126.892;2023-02-01T18:14:15;2.10;44.80
11639;DHT22;5875;35.940;126.892;2023-02-01T18:16:43;2.10;45.30
11639;DHT22;5875;35.940;126.892;2023-02-01T18:19:10;2.10;45.10
11639;DHT22;5875;35.940;126.892;2023-02-01T18:21:40;2.10;44.20
11639;DHT22;5875;35.940;126.892;2023-02-01T18:24:14;2.10;44.30
11639;DHT22;5875;35.940;126.892;2023-02-01T18:26:42;2.10;43.80
11639;DHT22;5875;35.940;126.892;2023-02-01T18:29:09;2.10;44.30
11639;DHT22;5875;35.940;126.892;2023-02-01T18:31:43;2.10;44.70
11639;DHT22;5875;35.940;126.892;2023-02-01T18:34:11;2.10;44.80
11639;DHT22;5875;35.940;126.892;2023-02-01T18:36:46;2.10;44.60